Harrier Hunter — A8VD8 — position and weather

sailwx.info

Track history (hours):
 
Tides and Currents Weather Stations Pressure Air Temp Water Temp Dewpoint Dewpoint Depression Visibility Wind Speed Wind Dir Waves Ship Positions

Harrier Hunter

Last reported at 2018-Jan-19 15:14 UTC. Time now 2018-Jan-19 21:23 UTC.
Position N 10°29' W 075°43'.

Length 262 m; draft 10.3 m.

Type: Ship (hazmat cat A). MMSI: 636017199.

Date/timePositionNaut miles runAvg speedWind from/ knotsBaromVisibWave heightAir tempDewpointWater temp
2018-Jan-19 15:14N 10°29' W 075°43'520.9
2018-Jan-19 15:00N 10°24' W 075°43'816.0
2018-Jan-19 14:30N 10°19' W 075°37'5 9.3
2018-Jan-19 14:00N 10°20' W 075°32'2 3.9
2018-Jan-19 13:30N 10°22' W 075°32'1 2.5
2018-Jan-19 12:58N 10°23' W 075°31'0 0.0
2018-Jan-19 12:28N 10°23' W 075°31'0 0.0
2018-Jan-19 11:55N 10°23' W 075°31'0 0.0
2018-Jan-19 11:22N 10°23' W 075°31'0 0.0
2018-Jan-19 10:58N 10°23' W 075°31'0 0.0
2018-Jan-19 10:31N 10°23' W 075°31'0 0.0
2018-Jan-19 10:01N 10°23' W 075°31'0 0.0
2018-Jan-19 09:31N 10°23' W 075°31'0 0.0
2018-Jan-19 09:01N 10°23' W 075°31'0 0.0
2018-Jan-19 08:25N 10°23' W 075°31'0 0.0
2018-Jan-19 08:01N 10°23' W 075°31'0 0.0
2018-Jan-19 07:31N 10°23' W 075°31'0 0.0
2018-Jan-19 07:01N 10°23' W 075°31'0 0.0
2018-Jan-19 06:31N 10°23' W 075°31'0 0.0
2018-Jan-19 06:01N 10°23' W 075°31'0 0.0
2018-Jan-19 05:31N 10°23' W 075°31'0 0.0
2018-Jan-19 05:01N 10°23' W 075°31'0 0.0
2018-Jan-19 04:31N 10°23' W 075°31'0 0.0
2018-Jan-19 03:55N 10°23' W 075°31'0 0.0
2018-Jan-19 03:31N 10°23' W 075°31'0 0.0
2018-Jan-19 03:01N 10°23' W 075°31'0 0.0
2018-Jan-19 02:31N 10°23' W 075°31'0 0.0
2018-Jan-19 02:01N 10°23' W 075°31'0 0.0
2018-Jan-19 01:31N 10°23' W 075°31'0 0.0
2018-Jan-19 01:01N 10°23' W 075°31'0 0.0
2018-Jan-19 00:31N 10°23' W 075°31'0 0.0
2018-Jan-19 00:01N 10°23' W 075°31'0 0.0
2018-Jan-18 23:31N 10°23' W 075°31'0 0.0
2018-Jan-18 23:01N 10°23' W 075°31'0 0.0
2018-Jan-18 22:31N 10°23' W 075°31'0 0.0
2018-Jan-18 22:01N 10°23' W 075°31'0 0.0
2018-Jan-18 21:31N 10°23' W 075°31'0 0.0
2018-Jan-18 21:00N 10°23' W 075°31'2 3.7
2018-Jan-18 20:29N 10°21' W 075°32'5 9.7
2018-Jan-18 19:59N 10°19' W 075°36'5 9.9
2018-Jan-18 19:30N 10°18' W 075°41'611.8
2018-Jan-18 19:00N 10°20' W 075°47'3 3.6
2018-Jan-18 18:17N 10°20' W 075°49'0 0.9
2018-Jan-18 17:56N 10°20' W 075°50'0 0.3
2018-Jan-18 17:30N 10°20' W 075°50'0 0.2
2018-Jan-18 16:59N 10°20' W 075°50'0 0.2
2018-Jan-18 16:30N 10°20' W 075°50'0 0.3
2018-Jan-18 16:00N 10°20' W 075°50'0 0.4
2018-Jan-18 15:30N 10°20' W 075°50'0 0.3
2018-Jan-18 14:59N 10°20' W 075°49'0 0.4
2018-Jan-18 14:21N 10°20' W 075°49'0 0.5
2018-Jan-18 14:00N 10°20' W 075°49'0 0.9
2018-Jan-18 13:30N 10°20' W 075°49'2 4.9
2018-Jan-18 13:00N 10°18' W 075°50'  
2018-Jan-15 06:00N 11°48' W 074°06'   070 / 171011.710.8 26.023.928.0
2018-Jan-11 12:00N 07°24' W 053°36'27215.1 090 / 151015.210.8 27.022.127.0
2018-Jan-10 18:00N 04°54' W 049°48'19416.2 070 / 141012.810.8 27.025.028.5
2018-Jan-10 06:00N 03°06' W 047°06'   070 / 141011.110.8 26.023.928.5
Track history (hours):
 
Tides and Currents Weather Stations Pressure Air Temp Water Temp Dewpoint Dewpoint Depression Visibility Wind Speed Wind Dir Waves Ship Positions

Harrier Hunter

Last reported at 2018-Jan-19 15:14 UTC. Time now 2018-Jan-19 21:23 UTC.
Position N 10°29' W 075°43'.

Length 262 m; draft 10.3 m.

Type: Ship (hazmat cat A). MMSI: 636017199.

Date/timePositionNaut miles runAvg speedWind from/ knotsBaromVisibWave heightAir tempDewpointWater temp
2018-Jan-19 15:14N 10°29' W 075°43'520.9
2018-Jan-19 15:00N 10°24' W 075°43'816.0
2018-Jan-19 14:30N 10°19' W 075°37'5 9.3
2018-Jan-19 14:00N 10°20' W 075°32'2 3.9
2018-Jan-19 13:30N 10°22' W 075°32'1 2.5
2018-Jan-19 12:58N 10°23' W 075°31'0 0.0
2018-Jan-19 12:28N 10°23' W 075°31'0 0.0
2018-Jan-19 11:55N 10°23' W 075°31'0 0.0
2018-Jan-19 11:22N 10°23' W 075°31'0 0.0
2018-Jan-19 10:58N 10°23' W 075°31'0 0.0
2018-Jan-19 10:31N 10°23' W 075°31'0 0.0
2018-Jan-19 10:01N 10°23' W 075°31'0 0.0
2018-Jan-19 09:31N 10°23' W 075°31'0 0.0
2018-Jan-19 09:01N 10°23' W 075°31'0 0.0
2018-Jan-19 08:25N 10°23' W 075°31'0 0.0
2018-Jan-19 08:01N 10°23' W 075°31'0 0.0
2018-Jan-19 07:31N 10°23' W 075°31'0 0.0
2018-Jan-19 07:01N 10°23' W 075°31'0 0.0
2018-Jan-19 06:31N 10°23' W 075°31'0 0.0
2018-Jan-19 06:01N 10°23' W 075°31'0 0.0
2018-Jan-19 05:31N 10°23' W 075°31'0 0.0
2018-Jan-19 05:01N 10°23' W 075°31'0 0.0
2018-Jan-19 04:31N 10°23' W 075°31'0 0.0
2018-Jan-19 03:55N 10°23' W 075°31'0 0.0
2018-Jan-19 03:31N 10°23' W 075°31'0 0.0
2018-Jan-19 03:01N 10°23' W 075°31'0 0.0
2018-Jan-19 02:31N 10°23' W 075°31'0 0.0
2018-Jan-19 02:01N 10°23' W 075°31'0 0.0
2018-Jan-19 01:31N 10°23' W 075°31'0 0.0
2018-Jan-19 01:01N 10°23' W 075°31'0 0.0
2018-Jan-19 00:31N 10°23' W 075°31'0 0.0
2018-Jan-19 00:01N 10°23' W 075°31'0 0.0
2018-Jan-18 23:31N 10°23' W 075°31'0 0.0
2018-Jan-18 23:01N 10°23' W 075°31'0 0.0
2018-Jan-18 22:31N 10°23' W 075°31'0 0.0
2018-Jan-18 22:01N 10°23' W 075°31'0 0.0
2018-Jan-18 21:31N 10°23' W 075°31'0 0.0
2018-Jan-18 21:00N 10°23' W 075°31'2 3.7
2018-Jan-18 20:29N 10°21' W 075°32'5 9.7
2018-Jan-18 19:59N 10°19' W 075°36'5 9.9
2018-Jan-18 19:30N 10°18' W 075°41'611.8
2018-Jan-18 19:00N 10°20' W 075°47'3 3.6
2018-Jan-18 18:17N 10°20' W 075°49'0 0.9
2018-Jan-18 17:56N 10°20' W 075°50'0 0.3
2018-Jan-18 17:30N 10°20' W 075°50'0 0.2
2018-Jan-18 16:59N 10°20' W 075°50'0 0.2
2018-Jan-18 16:30N 10°20' W 075°50'0 0.3
2018-Jan-18 16:00N 10°20' W 075°50'0 0.4
2018-Jan-18 15:30N 10°20' W 075°50'0 0.3
2018-Jan-18 14:59N 10°20' W 075°49'0 0.4
2018-Jan-18 14:21N 10°20' W 075°49'0 0.5
2018-Jan-18 14:00N 10°20' W 075°49'0 0.9
2018-Jan-18 13:30N 10°20' W 075°49'2 4.9
2018-Jan-18 13:00N 10°18' W 075°50'  
2018-Jan-15 06:00N 11°48' W 074°06'   070 / 171011.710.8 26.023.928.0
2018-Jan-11 12:00N 07°24' W 053°36'27215.1 090 / 151015.210.8 27.022.127.0
2018-Jan-10 18:00N 04°54' W 049°48'19416.2 070 / 141012.810.8 27.025.028.5
2018-Jan-10 06:00N 03°06' W 047°06'   070 / 141011.110.8 26.023.928.5

Dump ship's entire track history